createdAt,value
2017-07-30T00:01:07.770Z,19.60
2017-07-30T00:03:35.923Z,19.60
2017-07-30T00:06:04.104Z,19.50
2017-07-30T00:08:32.299Z,19.50
2017-07-30T00:11:00.469Z,19.40
2017-07-30T00:13:28.648Z,19.40
2017-07-30T00:15:56.864Z,19.40
2017-07-30T00:18:25.014Z,19.40
2017-07-30T00:20:53.192Z,19.50
2017-07-30T00:23:21.383Z,19.50
2017-07-30T00:25:49.548Z,19.50
2017-07-30T00:28:17.721Z,19.50
2017-07-30T00:30:45.974Z,19.50
2017-07-30T00:33:14.147Z,19.60
2017-07-30T00:35:42.306Z,19.50
2017-07-30T00:38:10.512Z,19.50
2017-07-30T00:40:38.691Z,19.50
2017-07-30T00:43:06.865Z,19.50
2017-07-30T00:45:35.047Z,19.50
2017-07-30T00:48:03.222Z,19.50
2017-07-30T00:50:31.382Z,19.50
2017-07-30T00:52:59.589Z,19.50
2017-07-30T00:55:28.509Z,19.50
2017-07-30T00:57:56.678Z,19.50
2017-07-30T01:00:24.882Z,19.70
2017-07-30T01:02:53.030Z,19.60
2017-07-30T01:05:21.181Z,19.70
2017-07-30T01:07:50.133Z,19.60
2017-07-30T01:10:18.294Z,19.60
2017-07-30T01:12:46.467Z,19.60
2017-07-30T01:15:14.663Z,19.70
2017-07-30T01:17:42.821Z,19.70
2017-07-30T01:20:10.975Z,19.70
2017-07-30T01:22:39.149Z,19.70
2017-07-30T01:25:08.174Z,19.80
2017-07-30T01:27:36.368Z,19.70
2017-07-30T01:30:04.584Z,19.70
2017-07-30T01:32:32.753Z,19.70
2017-07-30T01:35:00.914Z,19.70
2017-07-30T01:37:29.901Z,19.70
2017-07-30T01:39:58.054Z,19.60
2017-07-30T01:42:26.218Z,19.70
2017-07-30T01:44:54.741Z,19.70
2017-07-30T01:47:23.723Z,19.70
2017-07-30T01:49:51.883Z,19.60
2017-07-30T01:52:20.086Z,19.70
2017-07-30T01:54:49.029Z,19.50
2017-07-30T01:57:17.220Z,19.50
2017-07-30T01:59:45.426Z,19.60
2017-07-30T02:02:14.349Z,19.60
2017-07-30T02:04:42.521Z,19.60
2017-07-30T02:07:10.730Z,19.60
2017-07-30T02:09:38.884Z,19.70
2017-07-30T02:12:07.069Z,19.60
2017-07-30T02:14:35.277Z,19.60
2017-07-30T02:17:03.457Z,19.70
2017-07-30T02:19:32.383Z,19.70
2017-07-30T02:22:00.576Z,19.60
2017-07-30T02:24:28.753Z,19.70
2017-07-30T02:26:56.941Z,19.70
2017-07-30T02:29:25.155Z,19.70
2017-07-30T02:31:54.078Z,19.60
2017-07-30T02:34:22.234Z,19.50
2017-07-30T02:36:51.186Z,19.70
2017-07-30T02:39:19.347Z,19.70
2017-07-30T02:41:47.508Z,19.70
2017-07-30T02:44:15.694Z,19.70
2017-07-30T02:46:43.847Z,19.70
2017-07-30T02:49:12.017Z,19.70
2017-07-30T02:51:40.212Z,19.50
2017-07-30T02:54:08.388Z,19.40
2017-07-30T02:56:36.537Z,19.40
2017-07-30T02:59:04.742Z,19.40
2017-07-30T03:01:32.918Z,19.50
2017-07-30T03:04:01.080Z,19.40
2017-07-30T03:06:29.294Z,19.40
2017-07-30T03:08:57.454Z,19.40
2017-07-30T03:11:25.632Z,19.40
2017-07-30T03:13:53.815Z,19.40
2017-07-30T03:16:21.994Z,19.40
2017-07-30T03:18:50.145Z,19.40
2017-07-30T03:21:18.326Z,19.40
2017-07-30T03:23:46.481Z,19.30
2017-07-30T03:26:14.663Z,19.30
2017-07-30T03:28:42.865Z,19.30
2017-07-30T03:31:11.082Z,19.20
2017-07-30T03:33:39.237Z,19.20
2017-07-30T03:36:08.203Z,19.10
2017-07-30T03:38:36.376Z,19.10
2017-07-30T03:41:04.548Z,19.20
2017-07-30T03:43:32.738Z,19.20
2017-07-30T03:46:00.906Z,19.30
2017-07-30T03:48:29.075Z,19.40
2017-07-30T03:50:57.273Z,19.40
2017-07-30T03:53:26.215Z,19.40
2017-07-30T03:55:54.370Z,19.40
2017-07-30T03:58:22.553Z,19.50
2017-07-30T04:00:50.710Z,19.50
2017-07-30T04:03:18.884Z,19.50
2017-07-30T04:05:47.069Z,19.50
2017-07-30T04:08:15.253Z,19.50
2017-07-30T04:10:43.426Z,19.60
2017-07-30T04:13:11.618Z,19.60
2017-07-30T04:15:39.789Z,19.50
2017-07-30T04:18:07.942Z,19.50
2017-07-30T04:20:36.141Z,19.60
2017-07-30T04:23:04.295Z,19.50
2017-07-30T04:25:32.445Z,19.60
2017-07-30T04:28:01.390Z,19.70
2017-07-30T04:30:29.546Z,19.70
2017-07-30T04:32:57.694Z,19.70
2017-07-30T04:35:25.889Z,19.70
2017-07-30T04:37:54.043Z,19.70
2017-07-30T04:40:22.207Z,19.70
2017-07-30T04:42:51.165Z,19.80
2017-07-30T04:45:19.315Z,19.80
2017-07-30T04:47:47.493Z,19.80
2017-07-30T04:50:15.681Z,20.00
2017-07-30T04:52:43.831Z,20.00
2017-07-30T04:55:12.036Z,20.10
2017-07-30T04:57:40.237Z,20.10
2017-07-30T05:00:08.391Z,20.20
2017-07-30T05:02:36.560Z,20.30
2017-07-30T05:05:04.764Z,20.20
2017-07-30T05:07:33.700Z,20.20
2017-07-30T05:10:01.869Z,20.20
2017-07-30T05:12:30.047Z,20.30
2017-07-30T05:14:58.195Z,20.30
2017-07-30T05:17:26.349Z,20.30
2017-07-30T05:19:54.537Z,20.40
2017-07-30T05:22:23.474Z,20.60
2017-07-30T05:24:51.622Z,20.60
2017-07-30T05:27:19.818Z,20.70
2017-07-30T05:29:47.997Z,20.70
2017-07-30T05:32:16.171Z,20.80
2017-07-30T05:34:44.366Z,20.90
2017-07-30T05:37:12.529Z,20.90
2017-07-30T05:39:40.683Z,20.90
2017-07-30T05:42:08.863Z,20.90
2017-07-30T05:44:37.028Z,21.00
2017-07-30T05:47:05.201Z,21.10
2017-07-30T05:49:33.374Z,21.20
2017-07-30T05:52:01.522Z,21.30
2017-07-30T05:54:30.440Z,21.50
2017-07-30T05:56:58.630Z,21.50
2017-07-30T05:59:26.793Z,21.70
2017-07-30T06:01:54.938Z,21.70
2017-07-30T06:04:23.878Z,21.80
2017-07-30T06:06:52.049Z,21.80
2017-07-30T06:09:20.219Z,21.90
2017-07-30T06:11:48.417Z,22.00
2017-07-30T06:14:17.470Z,22.10
2017-07-30T06:16:45.637Z,22.00
2017-07-30T06:19:13.833Z,22.10
2017-07-30T06:21:42.001Z,22.10
2017-07-30T06:24:10.169Z,22.30
2017-07-30T06:26:38.345Z,22.20
2017-07-30T06:29:06.521Z,22.30
2017-07-30T06:31:34.718Z,22.30
2017-07-30T06:34:02.907Z,22.50
2017-07-30T06:36:31.073Z,22.40
2017-07-30T06:38:59.219Z,22.50
2017-07-30T06:41:27.419Z,22.60
2017-07-30T06:43:55.581Z,22.60
2017-07-30T06:46:23.759Z,22.60
2017-07-30T06:48:51.952Z,22.50
2017-07-30T06:51:20.120Z,22.30
2017-07-30T06:53:48.297Z,22.30
2017-07-30T06:56:16.486Z,22.10
2017-07-30T06:58:44.657Z,22.00
2017-07-30T07:01:12.822Z,22.00
2017-07-30T07:03:41.014Z,21.90
2017-07-30T07:06:09.180Z,21.80
2017-07-30T07:08:37.333Z,21.70
2017-07-30T07:11:05.524Z,21.70
2017-07-30T07:13:33.675Z,21.60
2017-07-30T07:16:01.841Z,21.60
2017-07-30T07:18:30.041Z,21.50
2017-07-30T07:20:58.210Z,21.50
2017-07-30T07:23:26.355Z,21.50
2017-07-30T07:25:54.531Z,21.50
2017-07-30T07:28:22.697Z,21.60
2017-07-30T07:30:50.850Z,21.60
2017-07-30T07:33:19.045Z,21.80
2017-07-30T07:35:47.224Z,21.90
2017-07-30T07:38:15.373Z,22.20
2017-07-30T07:40:43.570Z,22.20
2017-07-30T07:43:11.737Z,22.30
2017-07-30T07:45:40.657Z,22.50
2017-07-30T07:48:08.838Z,22.50
2017-07-30T07:50:37.005Z,22.60
2017-07-30T07:53:05.173Z,22.80
2017-07-30T07:55:33.348Z,23.10
2017-07-30T07:58:01.516Z,23.40
2017-07-30T08:00:29.682Z,23.60
2017-07-30T08:02:57.885Z,23.90
2017-07-30T08:05:26.057Z,24.20
2017-07-30T08:07:54.201Z,24.70
2017-07-30T08:10:23.183Z,25.00
2017-07-30T08:12:58.091Z,25.10
2017-07-30T08:15:26.293Z,25.10
2017-07-30T08:17:55.218Z,25.50
2017-07-30T08:20:23.385Z,25.50
2017-07-30T08:22:51.561Z,25.90
2017-07-30T08:25:19.717Z,25.90
2017-07-30T08:27:47.892Z,26.30
2017-07-30T08:30:16.075Z,27.30
2017-07-30T08:32:44.253Z,28.20
2017-07-30T08:35:12.428Z,28.60
2017-07-30T08:37:40.607Z,29.40
2017-07-30T08:40:08.773Z,29.90
2017-07-30T08:42:36.922Z,30.70
2017-07-30T08:45:05.882Z,29.60
2017-07-30T08:47:34.054Z,29.60
2017-07-30T08:50:02.204Z,29.70
2017-07-30T08:52:30.378Z,30.30
2017-07-30T08:54:58.527Z,30.40
2017-07-30T08:57:26.681Z,29.70
2017-07-30T08:59:55.653Z,28.10
2017-07-30T09:02:23.841Z,28.00
2017-07-30T09:04:52.002Z,27.80
2017-07-30T09:07:20.219Z,28.00
2017-07-30T09:09:48.398Z,29.00
2017-07-30T09:12:16.553Z,29.40
2017-07-30T09:14:45.517Z,28.30
2017-07-30T09:17:13.721Z,28.30
2017-07-30T09:19:42.643Z,27.60
2017-07-30T09:22:10.830Z,27.60
2017-07-30T09:24:38.990Z,27.60
2017-07-30T09:27:07.149Z,28.00
2017-07-30T09:29:35.362Z,28.80
2017-07-30T09:32:03.534Z,29.60
2017-07-30T09:34:31.694Z,30.30
2017-07-30T09:36:59.879Z,31.60
2017-07-30T09:39:28.051Z,32.50
2017-07-30T09:41:56.233Z,32.90
2017-07-30T09:44:24.406Z,33.70
2017-07-30T09:46:52.558Z,33.80
2017-07-30T09:49:20.726Z,33.30
2017-07-30T09:51:49.678Z,34.20
2017-07-30T09:54:17.853Z,34.20
2017-07-30T09:56:46.051Z,33.80
2017-07-30T09:59:14.246Z,32.60
2017-07-30T10:01:43.182Z,31.30
2017-07-30T10:04:11.351Z,31.30
2017-07-30T10:06:39.531Z,30.80
2017-07-30T10:09:07.701Z,30.50
2017-07-30T10:11:35.858Z,31.20
2017-07-30T10:14:04.035Z,32.70
2017-07-30T10:16:32.187Z,32.90
2017-07-30T10:19:00.343Z,33.50
2017-07-30T10:21:29.298Z,34.10
2017-07-30T10:23:57.465Z,34.00
2017-07-30T10:26:25.634Z,33.60
2017-07-30T10:28:53.822Z,32.30
2017-07-30T10:31:21.991Z,31.40
2017-07-30T10:33:50.163Z,30.20
2017-07-30T10:36:18.366Z,29.50
2017-07-30T10:38:46.523Z,29.70
2017-07-30T10:41:14.693Z,30.00
2017-07-30T10:43:42.872Z,30.80
2017-07-30T10:46:11.025Z,31.60
2017-07-30T10:48:39.189Z,33.20
2017-07-30T10:51:07.370Z,34.50
2017-07-30T10:53:35.564Z,36.00
2017-07-30T10:56:03.749Z,36.60
2017-07-30T10:58:31.946Z,37.30
2017-07-30T11:01:00.120Z,38.60
2017-07-30T11:03:28.270Z,38.90
2017-07-30T11:05:56.444Z,38.50
2017-07-30T11:08:24.592Z,38.30
2017-07-30T11:10:52.759Z,37.30
2017-07-30T11:13:20.957Z,36.30
2017-07-30T11:15:49.102Z,35.10
2017-07-30T11:18:17.282Z,34.50
2017-07-30T11:20:45.497Z,34.00
2017-07-30T11:23:13.662Z,33.60
2017-07-30T11:25:41.821Z,32.70
2017-07-30T11:28:10.022Z,32.60
2017-07-30T11:30:38.166Z,33.20
2017-07-30T11:33:06.310Z,33.70
2017-07-30T11:35:34.483Z,33.80
2017-07-30T11:38:02.660Z,33.70
2017-07-30T11:40:30.838Z,33.30
2017-07-30T11:42:59.006Z,33.50
2017-07-30T11:45:27.944Z,33.30
2017-07-30T11:47:56.107Z,33.30
2017-07-30T11:50:24.277Z,32.60
2017-07-30T11:52:52.481Z,32.30
2017-07-30T11:55:20.630Z,32.70
2017-07-30T11:57:48.819Z,32.40
2017-07-30T12:00:17.005Z,32.10
2017-07-30T12:02:45.156Z,32.10
2017-07-30T12:05:13.353Z,31.90
2017-07-30T12:07:41.521Z,31.30
2017-07-30T12:10:09.700Z,31.40
2017-07-30T12:12:43.703Z,31.00
2017-07-30T12:15:11.884Z,30.80
2017-07-30T12:17:40.061Z,30.20
2017-07-30T12:20:08.248Z,29.80
2017-07-30T12:22:36.399Z,29.60
2017-07-30T12:25:04.592Z,29.50
2017-07-30T12:27:32.770Z,29.80
2017-07-30T12:30:00.964Z,30.10
2017-07-30T12:32:29.133Z,30.40
2017-07-30T12:34:57.288Z,30.30
2017-07-30T12:37:25.459Z,30.20
2017-07-30T12:39:53.623Z,29.90
2017-07-30T12:42:21.821Z,29.70
2017-07-30T12:44:49.983Z,29.70
2017-07-30T12:47:18.159Z,29.80
2017-07-30T12:49:46.336Z,29.90
2017-07-30T12:52:14.511Z,30.00
2017-07-30T12:54:42.700Z,30.10
2017-07-30T12:57:10.877Z,29.90
2017-07-30T12:59:39.041Z,29.90
2017-07-30T13:02:07.227Z,29.60
2017-07-30T13:04:36.150Z,29.30
2017-07-30T13:07:04.348Z,29.30
2017-07-30T13:09:32.536Z,29.20
2017-07-30T13:12:00.713Z,29.30
2017-07-30T13:14:28.885Z,29.10
2017-07-30T13:16:57.061Z,29.00
2017-07-30T13:19:25.264Z,28.90
2017-07-30T13:21:53.437Z,28.80
2017-07-30T13:24:21.621Z,28.90
2017-07-30T13:26:50.563Z,29.10
2017-07-30T13:29:18.743Z,29.00
2017-07-30T13:31:46.912Z,29.10
2017-07-30T13:34:15.101Z,29.20
2017-07-30T13:36:43.303Z,29.00
2017-07-30T13:39:12.281Z,29.00
2017-07-30T13:41:40.441Z,28.90
2017-07-30T13:44:08.599Z,29.30
2017-07-30T13:46:36.768Z,29.40
2017-07-30T13:49:04.932Z,29.00
2017-07-30T13:51:33.115Z,28.60
2017-07-30T13:54:01.274Z,28.30
2017-07-30T13:56:29.435Z,28.50
2017-07-30T13:58:58.376Z,28.70
2017-07-30T14:01:26.536Z,28.70
2017-07-30T14:03:54.709Z,28.80
2017-07-30T14:06:22.858Z,28.80
2017-07-30T14:08:51.047Z,28.70
2017-07-30T14:11:19.222Z,28.60
2017-07-30T14:13:47.381Z,28.70
2017-07-30T14:16:16.325Z,29.00
2017-07-30T14:18:44.473Z,29.00
2017-07-30T14:21:12.648Z,28.90
2017-07-30T14:23:40.823Z,28.90
2017-07-30T14:26:08.970Z,28.70
2017-07-30T14:28:37.944Z,29.00
2017-07-30T14:31:06.113Z,28.90
2017-07-30T14:33:34.270Z,29.00
2017-07-30T14:36:02.450Z,29.10
2017-07-30T14:38:30.599Z,29.20
2017-07-30T14:40:58.797Z,29.30
2017-07-30T14:43:26.958Z,29.20
2017-07-30T14:45:55.114Z,29.00
2017-07-30T14:48:23.287Z,29.00
2017-07-30T14:50:51.458Z,29.10
2017-07-30T14:53:19.669Z,29.20
2017-07-30T14:55:47.824Z,29.20
2017-07-30T14:58:16.002Z,29.00
2017-07-30T15:00:44.196Z,29.10
2017-07-30T15:03:12.368Z,28.80
2017-07-30T15:05:40.541Z,28.90
2017-07-30T15:08:08.689Z,28.90
2017-07-30T15:10:36.845Z,29.00
2017-07-30T15:13:05.026Z,28.90
2017-07-30T15:15:33.209Z,28.80
2017-07-30T15:18:01.411Z,28.80
2017-07-30T15:20:29.577Z,28.80
2017-07-30T15:22:57.756Z,28.60
2017-07-30T15:25:25.927Z,28.40
2017-07-30T15:27:54.083Z,28.30
2017-07-30T15:30:22.293Z,28.50
2017-07-30T15:32:50.464Z,28.40
2017-07-30T15:35:18.641Z,28.30
2017-07-30T15:37:46.837Z,28.30
2017-07-30T15:40:15.777Z,28.40
2017-07-30T15:42:43.950Z,28.40
2017-07-30T15:45:12.094Z,28.40
2017-07-30T15:47:41.012Z,28.60
2017-07-30T15:50:09.183Z,28.60
2017-07-30T15:52:37.346Z,28.70
2017-07-30T15:55:05.534Z,28.80
2017-07-30T15:57:33.709Z,28.80
2017-07-30T16:00:01.863Z,28.70
2017-07-30T16:02:30.807Z,28.30
2017-07-30T16:04:59.000Z,28.30
2017-07-30T16:07:27.964Z,28.00
2017-07-30T16:09:56.121Z,27.90
2017-07-30T16:12:24.279Z,27.80
2017-07-30T16:14:52.445Z,27.70
2017-07-30T16:17:21.370Z,27.40
2017-07-30T16:19:49.554Z,27.40
2017-07-30T16:22:17.731Z,27.30
2017-07-30T16:24:45.909Z,27.30
2017-07-30T16:27:14.112Z,27.20
2017-07-30T16:29:42.276Z,26.90
2017-07-30T16:32:10.450Z,26.70
2017-07-30T16:34:38.622Z,26.50
2017-07-30T16:37:06.765Z,26.30
2017-07-30T16:39:34.944Z,26.20
2017-07-30T16:42:03.120Z,26.10
2017-07-30T16:44:31.302Z,25.80
2017-07-30T16:46:59.469Z,25.90
2017-07-30T16:49:27.636Z,26.10
2017-07-30T16:51:55.809Z,26.20
2017-07-30T16:54:23.972Z,26.30
2017-07-30T16:56:52.169Z,26.40
2017-07-30T16:59:20.322Z,26.10
2017-07-30T17:01:48.466Z,26.00
2017-07-30T17:04:16.663Z,25.80
2017-07-30T17:06:44.834Z,25.90
2017-07-30T17:09:13.016Z,25.80
2017-07-30T17:11:41.166Z,25.80
2017-07-30T17:14:09.310Z,25.60
2017-07-30T17:16:37.470Z,25.60
2017-07-30T17:19:05.636Z,25.60
2017-07-30T17:21:33.847Z,25.70
2017-07-30T17:24:02.023Z,25.60
2017-07-30T17:26:30.178Z,25.60
2017-07-30T17:28:58.374Z,25.50
2017-07-30T17:31:26.540Z,25.40
2017-07-30T17:33:54.733Z,25.40
2017-07-30T17:36:22.897Z,25.40
2017-07-30T17:38:51.069Z,25.20
2017-07-30T17:41:19.261Z,25.20
2017-07-30T17:43:48.199Z,25.10
2017-07-30T17:46:16.372Z,25.10
2017-07-30T17:48:44.762Z,24.80
2017-07-30T17:51:12.905Z,24.70
2017-07-30T17:53:41.076Z,24.60
2017-07-30T17:56:10.031Z,24.40
2017-07-30T17:58:38.265Z,24.40
2017-07-30T18:01:07.390Z,24.20
2017-07-30T18:03:35.567Z,24.20
2017-07-30T18:06:03.741Z,24.20
2017-07-30T18:08:31.961Z,24.20
2017-07-30T18:11:00.153Z,24.20
2017-07-30T18:13:28.354Z,24.10
2017-07-30T18:15:56.547Z,24.10
2017-07-30T18:18:24.720Z,24.10
2017-07-30T18:20:52.904Z,24.00
2017-07-30T18:23:21.191Z,24.00
2017-07-30T18:25:49.410Z,24.00
2017-07-30T18:28:17.740Z,23.80
2017-07-30T18:30:45.915Z,23.80
2017-07-30T18:33:14.100Z,23.80
2017-07-30T18:35:42.277Z,23.80
2017-07-30T18:38:11.285Z,23.60
2017-07-30T18:40:39.538Z,23.60
2017-07-30T18:43:07.743Z,23.70
2017-07-30T18:45:36.018Z,23.60
2017-07-30T18:48:04.382Z,23.50
2017-07-30T18:50:32.669Z,23.50
2017-07-30T18:53:01.034Z,23.40
2017-07-30T18:55:30.176Z,23.30
2017-07-30T18:57:58.650Z,23.30
2017-07-30T19:00:27.066Z,23.30
2017-07-30T19:02:55.557Z,23.10
2017-07-30T19:05:23.957Z,23.10
2017-07-30T19:07:52.427Z,23.10
2017-07-30T19:10:20.915Z,22.90
2017-07-30T19:12:49.418Z,23.00
2017-07-30T19:15:17.952Z,22.80
2017-07-30T19:17:46.800Z,22.60
2017-07-30T19:20:15.392Z,22.60
2017-07-30T19:22:44.665Z,22.60
2017-07-30T19:25:13.145Z,22.60
2017-07-30T19:27:41.660Z,22.70
2017-07-30T19:30:10.124Z,22.70
2017-07-30T19:32:38.641Z,22.70
2017-07-30T19:35:07.126Z,22.50
2017-07-30T19:37:35.598Z,22.50
2017-07-30T19:40:04.848Z,22.30
2017-07-30T19:42:33.351Z,22.30
2017-07-30T19:45:01.828Z,22.30
2017-07-30T19:47:30.329Z,22.20
2017-07-30T19:49:58.813Z,22.10
2017-07-30T19:52:27.306Z,22.10
2017-07-30T19:54:55.803Z,21.90
2017-07-30T19:57:24.277Z,21.90
2017-07-30T19:59:52.488Z,21.90
2017-07-30T20:02:20.656Z,21.80
2017-07-30T20:04:48.856Z,21.80
2017-07-30T20:07:17.021Z,21.80
2017-07-30T20:09:45.190Z,21.90
2017-07-30T20:12:13.386Z,21.90
2017-07-30T20:14:42.320Z,21.90
2017-07-30T20:17:10.516Z,21.90
2017-07-30T20:19:38.680Z,21.90
2017-07-30T20:22:06.836Z,21.90
2017-07-30T20:24:35.029Z,21.80
2017-07-30T20:27:03.192Z,21.80
2017-07-30T20:29:31.386Z,21.70
2017-07-30T20:31:59.533Z,21.70
2017-07-30T20:34:27.705Z,21.60
2017-07-30T20:36:55.949Z,21.60
2017-07-30T20:39:25.037Z,21.60
2017-07-30T20:41:53.285Z,21.60
2017-07-30T20:44:21.434Z,21.60
2017-07-30T20:46:49.610Z,21.60
2017-07-30T20:49:17.801Z,21.60
2017-07-30T20:51:45.970Z,21.60
2017-07-30T20:54:14.278Z,21.50
2017-07-30T20:56:42.595Z,21.50
2017-07-30T20:59:10.747Z,21.50
2017-07-30T21:01:39.785Z,21.50
2017-07-30T21:04:07.985Z,21.50
2017-07-30T21:06:36.311Z,21.50
2017-07-30T21:09:05.227Z,21.50
2017-07-30T21:11:33.392Z,21.50
2017-07-30T21:14:01.557Z,21.50
2017-07-30T21:16:30.138Z,21.50
2017-07-30T21:18:58.340Z,21.50
2017-07-30T21:21:26.515Z,21.50
2017-07-30T21:23:54.662Z,21.50
2017-07-30T21:26:22.839Z,21.40
2017-07-30T21:28:51.012Z,21.40
2017-07-30T21:31:19.189Z,21.40
2017-07-30T21:33:47.351Z,21.50
2017-07-30T21:36:16.288Z,21.40
2017-07-30T21:38:44.455Z,21.40
2017-07-30T21:41:12.619Z,21.30
2017-07-30T21:43:40.828Z,21.30
2017-07-30T21:46:08.990Z,21.20
2017-07-30T21:48:37.134Z,21.20
2017-07-30T21:51:05.299Z,21.20
2017-07-30T21:53:33.481Z,21.20
2017-07-30T21:56:01.667Z,21.10
2017-07-30T21:58:29.813Z,21.10
2017-07-30T22:00:57.975Z,21.10
2017-07-30T22:03:26.143Z,21.10
2017-07-30T22:05:54.308Z,21.00
2017-07-30T22:08:22.484Z,21.00
2017-07-30T22:10:50.649Z,21.00
2017-07-30T22:13:18.794Z,21.00
2017-07-30T22:15:46.960Z,21.00
2017-07-30T22:18:15.106Z,21.00
2017-07-30T22:20:44.465Z,20.90
2017-07-30T22:23:12.619Z,20.90
2017-07-30T22:25:40.770Z,20.90
2017-07-30T22:28:08.962Z,20.90
2017-07-30T22:30:37.118Z,20.80
2017-07-30T22:33:05.287Z,20.80
2017-07-30T22:35:34.252Z,20.70
2017-07-30T22:38:02.421Z,20.70
2017-07-30T22:40:30.598Z,20.70
2017-07-30T22:42:58.783Z,20.70
2017-07-30T22:45:26.929Z,20.60
2017-07-30T22:47:55.082Z,20.60
2017-07-30T22:50:23.258Z,20.60
2017-07-30T22:52:51.425Z,20.50
2017-07-30T22:55:19.570Z,20.60
2017-07-30T22:57:48.562Z,20.50
2017-07-30T23:00:16.734Z,20.60
2017-07-30T23:02:45.669Z,20.40
2017-07-30T23:05:13.868Z,20.50
2017-07-30T23:07:42.010Z,20.50
2017-07-30T23:10:10.627Z,20.40
2017-07-30T23:12:40.218Z,20.50
2017-07-30T23:15:08.794Z,20.50
2017-07-30T23:17:37.025Z,20.50
2017-07-30T23:20:06.005Z,20.40
2017-07-30T23:22:34.150Z,20.40
2017-07-30T23:25:02.290Z,20.40
2017-07-30T23:27:30.486Z,20.30
2017-07-30T23:29:58.638Z,20.40
2017-07-30T23:32:26.794Z,20.40
2017-07-30T23:34:55.751Z,20.40
2017-07-30T23:37:23.916Z,20.40
2017-07-30T23:39:52.057Z,20.40
2017-07-30T23:42:20.237Z,20.40
2017-07-30T23:44:48.385Z,20.40
2017-07-30T23:47:16.552Z,20.30
2017-07-30T23:49:44.746Z,20.20
2017-07-30T23:52:12.917Z,20.20
2017-07-30T23:54:41.065Z,20.20
2017-07-30T23:57:09.364Z,20.20
2017-07-30T23:59:38.280Z,20.10
